Time;durP1;ratioP1;P1;durP2;ratioP2;P2;SDS_P1;SDS_P2;PMS_P1;PMS_P2;Temp;Humidity;BMP_temperature;BMP_pressure;BME280_temperature;BME280_humidity;BME280_pressure;Samples;Min_cycle;Max_cycle;Signal;HPM_P1;HPM_P2
2023/03/01 00:02:21;;;;;;;4.78;3.53;;;;;;;4.28;81.37;103323.25;4994405;28;20023;-85
2023/03/01 00:04:47;;;;;;;6.18;4.57;;;;;;;4.08;82.36;103302.06;4992930;28;20432;-84
2023/03/01 00:07:15;;;;;;;7.80;5.25;;;;;;;4.25;82.44;103325.22;4994314;28;20116;-85
2023/03/01 00:09:41;;;;;;;4.25;2.88;;;;;;;4.37;81.42;103314.00;4992842;28;20512;-85
2023/03/01 00:12:06;;;;;;;3.80;3.20;;;;;;;4.31;81.55;103315.16;4992532;28;20096;-84
2023/03/01 00:14:32;;;;;;;6.15;4.45;;;;;;;4.27;81.51;103310.91;4960381;28;20037;-88
2023/03/01 00:16:58;;;;;;;7.03;4.82;;;;;;;4.25;82.03;103319.91;4976285;28;20081;-82
2023/03/01 00:19:24;;;;;;;3.65;2.55;;;;;;;4.20;82.89;103312.09;4993021;28;20117;-84
2023/03/01 00:21:49;;;;;;;4.18;3.03;;;;;;;4.15;82.96;103309.69;4976638;28;20465;-86
2023/03/01 00:24:15;;;;;;;6.35;4.05;;;;;;;4.10;83.33;103306.38;4975798;28;20031;-85
2023/03/01 00:26:40;;;;;;;6.85;4.30;;;;;;;4.12;83.04;103293.81;4961030;28;20031;-85
2023/03/01 00:29:06;;;;;;;7.72;4.20;;;;;;;4.13;83.08;103289.38;4993519;28;20034;-84
2023/03/01 00:31:33;;;;;;;6.70;3.78;;;;;;;4.20;82.69;103293.47;4992961;28;20117;-83
2023/03/01 00:34:01;;;;;;;6.55;5.35;;;;;;;4.19;82.99;103289.09;4992881;28;20026;-85
2023/03/01 00:36:33;;;;;;;6.57;3.60;;;;;;;4.21;82.30;103283.69;4992126;28;20035;-82
2023/03/01 00:38:59;;;;;;;7.80;4.82;;;;;;;4.12;82.90;103293.81;4960922;28;20039;-85
2023/03/01 00:41:26;;;;;;;4.35;3.03;;;;;;;4.09;83.17;103279.81;4992628;28;20045;-83
2023/03/01 00:43:52;;;;;;;5.25;3.97;;;;;;;4.09;83.09;103282.47;4992744;28;20166;-86
2023/03/01 00:46:21;;;;;;;5.57;3.88;;;;;;;4.11;83.10;103276.13;4992990;28;20507;-85
2023/03/01 00:48:47;;;;;;;2.28;1.85;;;;;;;4.02;82.93;103265.91;4944595;28;20039;-86
2023/03/01 00:51:23;;;;;;;6.75;3.60;;;;;;;4.06;82.74;103269.31;4994017;28;20038;-84
2023/03/01 00:53:59;;;;;;;7.88;4.20;;;;;;;4.09;82.45;103274.47;4976706;28;20023;-85
2023/03/01 00:56:25;;;;;;;2.92;2.63;;;;;;;3.97;82.69;103263.47;4992411;28;20038;-85
2023/03/01 00:58:51;;;;;;;5.55;4.18;;;;;;;4.01;83.44;103260.66;4992424;28;20030;-82
2023/03/01 01:01:20;;;;;;;7.70;4.88;;;;;;;3.96;83.62;103267.06;4993150;28;20117;-85
2023/03/01 01:03:48;;;;;;;3.45;2.53;;;;;;;3.96;83.98;103272.38;4976539;28;20036;-85
2023/03/01 01:06:22;;;;;;;8.60;4.40;;;;;;;3.86;84.36;103249.78;4960859;28;20396;-82
2023/03/01 01:08:49;;;;;;;8.43;4.45;;;;;;;3.81;84.26;103237.63;4991877;28;20074;-84
2023/03/01 01:11:15;;;;;;;4.57;3.22;;;;;;;3.85;84.46;103252.53;4992681;28;20070;-84
2023/03/01 01:13:41;;;;;;;5.25;3.60;;;;;;;3.86;84.43;103244.44;4993209;28;20065;-81
2023/03/01 01:16:07;;;;;;;4.53;3.05;;;;;;;3.87;85.03;103238.22;4975765;28;20026;-87
2023/03/01 01:18:33;;;;;;;4.15;2.78;;;;;;;3.86;85.12;103249.78;4976284;28;20038;-84
2023/03/01 01:21:07;;;;;;;2.75;2.05;;;;;;;3.81;85.35;103226.97;4994118;28;20382;-84
2023/03/01 01:23:33;;;;;;;3.88;2.38;;;;;;;3.80;85.06;103226.13;4995930;28;20037;-86
2023/03/01 01:26:07;;;;;;;5.10;2.88;;;;;;;3.84;85.64;103227.72;4979563;28;20038;-85
2023/03/01 01:28:35;;;;;;;6.03;3.88;;;;;;;3.83;85.12;103222.44;4963366;28;20496;-86
2023/03/01 01:31:00;;;;;;;5.53;3.47;;;;;;;3.85;85.41;103218.78;4995851;28;20029;-82
2023/03/01 01:33:26;;;;;;;3.22;2.45;;;;;;;3.90;85.38;103230.09;4996898;28;20030;-82
2023/03/01 01:35:52;;;;;;;5.47;2.92;;;;;;;3.82;84.57;103205.63;4995231;28;20031;-86
2023/03/01 01:38:17;;;;;;;3.55;2.53;;;;;;;3.85;85.04;103204.63;4995868;28;20066;-85
2023/03/01 01:40:45;;;;;;;6.15;4.22;;;;;;;3.92;85.24;103217.56;4996454;28;20057;-81
2023/03/01 01:43:19;;;;;;;4.93;3.08;;;;;;;3.89;84.84;103211.50;4963219;28;20492;-86
2023/03/01 01:45:45;;;;;;;5.35;3.20;;;;;;;3.88;85.23;103204.47;4979551;28;20041;-81
2023/03/01 01:48:18;;;;;;;5.55;3.88;;;;;;;3.85;85.32;103200.16;4995803;28;20035;-82
2023/03/01 01:50:44;;;;;;;4.85;2.53;;;;;;;3.82;86.03;103200.31;4963242;28;20485;-88
2023/03/01 01:53:20;;;;;;;5.15;3.17;;;;;;;3.86;85.93;103209.00;4979364;28;20031;-85
2023/03/01 01:55:51;;;;;;;3.63;2.33;;;;;;;3.79;85.21;103181.81;4994800;28;20469;-84
2023/03/01 01:58:19;;;;;;;5.07;3.45;;;;;;;3.75;85.15;103189.06;4979248;28;20134;-84
2023/03/01 02:00:46;;;;;;;4.53;3.70;;;;;;;3.77;86.20;103191.66;4978864;28;20046;-88
2023/03/01 02:03:24;;;;;;;5.05;3.55;;;;;;;3.78;86.17;103193.38;4995858;28;20027;-81
2023/03/01 02:05:49;;;;;;;6.18;3.60;;;;;;;3.62;86.11;103161.31;4963509;28;20077;-84
2023/03/01 02:08:18;;;;;;;6.20;4.07;;;;;;;3.76;86.31;103181.97;4978623;28;20073;-85
2023/03/01 02:10:45;;;;;;;5.65;3.80;;;;;;;3.72;86.87;103181.22;4962579;28;20042;-85
2023/03/01 02:13:11;;;;;;;7.68;3.88;;;;;;;3.69;87.24;103172.53;4962795;28;20030;-87
2023/03/01 02:15:38;;;;;;;6.53;3.85;;;;;;;3.61;87.52;103175.56;4978566;28;20030;-85
2023/03/01 02:18:05;;;;;;;8.80;4.20;;;;;;;3.62;87.79;103176.41;4962134;28;20129;-84
2023/03/01 02:20:39;;;;;;;7.57;3.53;;;;;;;3.58;87.82;103165.06;4962934;28;20034;-85
2023/03/01 02:23:05;;;;;;;7.18;4.45;;;;;;;3.53;88.34;103164.41;4979032;28;20041;-82
2023/03/01 02:25:50;;;;;;;9.57;4.13;;;;;;;3.55;88.71;103169.63;4994108;28;20070;-81
2023/03/01 02:28:15;;;;;;;8.27;3.50;;;;;;;3.53;89.21;103165.28;4962701;28;20027;-85
2023/03/01 02:31:41;;;;;;;7.00;4.30;;;;;;;3.51;89.47;103159.16;4978231;28;20041;-84
2023/03/01 02:33:32;;;;;;;6.22;3.88;;;;;;;3.52;89.63;103160.03;4994044;28;20392;-83
2023/03/01 02:36:13;;;;;;;6.80;4.60;;;;;;;3.51;89.86;103147.66;4994809;28;20037;-84
2023/03/01 02:38:40;;;;;;;5.35;4.05;;;;;;;3.46;90.11;103133.69;4963193;28;20062;-85
2023/03/01 02:41:07;;;;;;;10.00;4.40;;;;;;;3.47;90.79;103130.97;4962336;28;20050;-84
2023/03/01 02:43:33;;;;;;;4.75;3.30;;;;;;;3.47;90.65;103123.00;4962912;28;20033;-82
2023/03/01 02:46:03;;;;;;;6.70;3.75;;;;;;;3.57;90.26;103133.19;4995205;28;20049;-85
2023/03/01 02:48:40;;;;;;;5.32;3.33;;;;;;;3.59;90.04;103134.84;4962593;28;20050;-80
2023/03/01 02:51:14;;;;;;;6.78;3.65;;;;;;;3.64;90.86;103126.66;4994624;28;20035;-85
2023/03/01 02:54:08;;;;;;;7.40;4.18;;;;;;;3.65;90.40;103125.72;4962346;28;20037;-82
2023/03/01 02:56:34;;;;;;;5.85;4.15;;;;;;;3.60;90.51;103110.00;4995194;28;20042;-82
2023/03/01 02:59:00;;;;;;;4.22;2.67;;;;;;;3.62;91.54;103110.75;4961946;28;20496;-85
2023/03/01 03:01:38;;;;;;;7.28;3.85;;;;;;;3.56;91.27;103102.22;4977821;28;20117;-80
2023/03/01 03:04:11;;;;;;;4.35;2.47;;;;;;;3.61;92.04;103109.03;4993969;28;20034;-84
2023/03/01 03:06:37;;;;;;;6.07;3.78;;;;;;;3.57;92.52;103096.81;4961502;28;20055;-86
2023/03/01 03:09:04;;;;;;;6.22;3.90;;;;;;;3.62;92.90;103110.75;4994968;28;20208;-81
2023/03/01 03:11:30;;;;;;;5.28;3.67;;;;;;;3.66;93.06;103104.38;4993694;28;20472;-84
2023/03/01 03:13:57;;;;;;;6.47;3.75;;;;;;;3.67;93.10;103107.88;4995154;28;20030;-84
2023/03/01 03:16:23;;;;;;;7.18;4.53;;;;;;;3.69;92.87;103106.03;4977024;28;20534;-82
2023/03/01 03:18:49;;;;;;;6.80;4.20;;;;;;;3.68;93.50;103101.66;4994779;28;20026;-84
2023/03/01 03:21:15;;;;;;;6.25;3.60;;;;;;;3.69;93.43;103098.91;4977583;28;20034;-83
2023/03/01 03:23:40;;;;;;;5.93;3.25;;;;;;;3.63;93.88;103077.06;4994344;28;20042;-82
2023/03/01 03:26:06;;;;;;;5.32;2.65;;;;;;;3.66;93.41;103071.59;4994697;28;20129;-81
2023/03/01 03:28:32;;;;;;;7.05;4.03;;;;;;;3.76;93.51;103083.50;4977231;28;20081;-84
2023/03/01 03:31:03;;;;;;;6.28;3.90;;;;;;;3.74;93.44;103082.72;4993507;28;20036;-86
2023/03/01 03:33:30;;;;;;;6.03;3.80;;;;;;;3.71;93.26;103075.75;4993807;28;20027;-85
2023/03/01 03:35:56;;;;;;;6.45;4.43;;;;;;;3.70;93.11;103078.47;4961308;28;20033;-87
2023/03/01 03:38:22;;;;;;;7.95;4.38;;;;;;;3.66;93.42;103068.94;4992911;28;20100;-81
2023/03/01 03:41:03;;;;;;;6.70;4.22;;;;;;;3.64;93.51;103070.78;4994737;28;20472;-85
2023/03/01 03:43:32;;;;;;;7.38;4.22;;;;;;;3.68;94.38;103086.53;4976586;28;20105;-81
2023/03/01 03:45:58;;;;;;;6.20;4.18;;;;;;;3.65;93.88;103084.03;4961153;28;20061;-86
2023/03/01 03:48:25;;;;;;;6.18;4.13;;;;;;;3.65;94.30;103077.81;4977509;28;20070;-83
2023/03/01 03:50:52;;;;;;;9.15;3.83;;;;;;;3.63;94.16;103074.41;4976557;28;20038;-83
2023/03/01 03:53:19;;;;;;;6.40;3.60;;;;;;;3.65;94.40;103075.16;4994193;28;20026;-85
2023/03/01 03:55:49;;;;;;;8.38;4.07;;;;;;;3.66;94.30;103084.88;4960805;28;20026;-82
2023/03/01 03:58:16;;;;;;;6.38;3.63;;;;;;;3.65;94.35;103085.81;4960582;28;20030;-88
2023/03/01 04:00:44;;;;;;;5.75;3.88;;;;;;;3.66;94.34;103083.09;4992816;28;20080;-83
2023/03/01 04:03:12;;;;;;;5.63;3.92;;;;;;;3.64;94.94;103084.94;4945365;28;20073;-85
2023/03/01 04:05:39;;;;;;;7.05;3.92;;;;;;;3.65;95.25;103086.69;4976408;28;20045;-86
2023/03/01 04:08:08;;;;;;;6.28;3.75;;;;;;;3.57;95.47;103062.22;4960642;28;20425;-86
2023/03/01 04:10:37;;;;;;;6.25;4.25;;;;;;;3.62;95.97;103081.50;4993516;28;20036;-81
2023/03/01 04:13:06;;;;;;;6.80;4.32;;;;;;;3.58;95.84;103076.41;4977336;28;20440;-83
2023/03/01 04:15:35;;;;;;;8.18;4.00;;;;;;;3.61;96.01;103085.09;4977025;28;20030;-87
2023/03/01 04:18:04;;;;;;;7.18;4.22;;;;;;;3.56;96.41;103057.00;4992736;28;20358;-85
2023/03/01 04:20:34;;;;;;;6.78;3.60;;;;;;;3.69;96.59;103079.41;4961169;28;20384;-82
2023/03/01 04:23:10;;;;;;;6.13;3.55;;;;;;;3.71;95.88;103077.56;4992790;28;20034;-86
2023/03/01 04:25:54;;;;;;;6.30;3.92;;;;;;;3.69;96.26;103071.44;4994323;28;20076;-87
2023/03/01 04:28:35;;;;;;;7.82;4.03;;;;;;;3.62;96.16;103044.25;4960989;28;20389;-81
2023/03/01 04:31:12;;;;;;;6.43;3.90;;;;;;;3.80;96.05;103062.94;4976518;28;20440;-81
2023/03/01 04:33:52;;;;;;;7.75;4.15;;;;;;;3.81;96.13;103069.97;4977350;28;20038;-86
2023/03/01 04:36:20;;;;;;;7.72;4.70;;;;;;;3.78;96.18;103072.78;4960479;28;20034;-86
2023/03/01 04:38:47;;;;;;;5.63;3.78;;;;;;;3.69;96.69;103055.47;4960424;28;20041;-83
2023/03/01 04:41:18;;;;;;;6.82;4.32;;;;;;;3.71;96.99;103056.25;4992697;28;20038;-83
2023/03/01 04:43:44;;;;;;;7.30;4.20;;;;;;;3.71;97.09;103061.59;4976571;28;20030;-85
2023/03/01 04:46:15;;;;;;;6.00;4.20;;;;;;;3.69;97.47;103053.66;4992645;28;20034;-81
2023/03/01 04:48:42;;;;;;;6.78;3.80;;;;;;;3.63;97.29;103037.16;4993299;28;20030;-87
2023/03/01 04:51:08;;;;;;;8.70;4.75;;;;;;;3.77;97.86;103061.28;4976516;28;20038;-85
2023/03/01 04:53:36;;;;;;;6.35;4.15;;;;;;;3.76;97.15;103054.25;4993431;28;20062;-86
2023/03/01 04:56:02;;;;;;;6.07;3.75;;;;;;;3.79;97.55;103058.56;4996404;28;20070;-84
2023/03/01 04:58:28;;;;;;;5.55;3.85;;;;;;;3.82;98.04;103061.06;4964048;28;20556;-84
2023/03/01 05:00:54;;;;;;;7.80;3.70;;;;;;;3.82;97.98;103064.56;4996546;28;20034;-83
2023/03/01 05:03:21;;;;;;;6.97;4.25;;;;;;;3.85;98.24;103060.91;4996003;28;20440;-82
2023/03/01 05:05:49;;;;;;;5.95;3.35;;;;;;;3.63;98.10;103018.53;4979707;28;20030;-86
2023/03/01 05:08:18;;;;;;;6.82;4.38;;;;;;;3.88;98.57;103053.63;4980176;28;20117;-86
2023/03/01 05:10:53;;;;;;;6.90;3.95;;;;;;;3.89;98.44;103047.38;4995657;28;20042;-84
2023/03/01 05:13:20;;;;;;;5.38;3.20;;;;;;;3.96;98.48;103055.91;4996172;28;20085;-84
2023/03/01 05:15:58;;;;;;;1.20;1.10;;;;;;;4.00;98.62;103054.81;4979708;28;20088;-81
2023/03/01 05:18:28;;;;;;;4.30;2.78;;;;;;;4.04;98.61;103055.53;4979158;28;20042;-81
2023/03/01 05:21:12;;;;;;;4.85;3.17;;;;;;;4.08;98.19;103060.63;4995417;28;20433;-81
2023/03/01 05:23:58;;;;;;;2.30;1.67;;;;;;;4.07;98.63;103063.34;4963733;28;20023;-82
2023/03/01 05:26:28;;;;;;;3.28;2.50;;;;;;;3.95;98.61;103052.38;4978969;28;20053;-83
2023/03/01 05:28:58;;;;;;;5.60;3.55;;;;;;;3.86;99.00;103036.84;4996778;28;20039;-82
2023/03/01 05:31:30;;;;;;;6.05;3.97;;;;;;;4.02;98.93;103068.91;4979266;28;20461;-83
2023/03/01 05:33:55;;;;;;;5.38;3.42;;;;;;;4.01;99.05;103061.88;4963765;28;20038;-83
2023/03/01 05:36:21;;;;;;;7.85;3.90;;;;;;;3.95;99.27;103055.06;4979445;28;20041;-86
2023/03/01 05:38:47;;;;;;;5.60;3.10;;;;;;;3.96;99.97;103067.41;4963172;28;20062;-85
2023/03/01 05:41:16;;;;;;;5.63;3.72;;;;;;;3.86;100.00;103049.31;4996339;28;20080;-85
2023/03/01 05:43:44;;;;;;;6.88;3.85;;;;;;;3.90;100.00;103070.38;4979326;28;20145;-86
2023/03/01 05:46:13;;;;;;;6.32;3.45;;;;;;;3.78;100.00;103044.38;4995435;28;20435;-85
2023/03/01 05:48:38;;;;;;;5.70;3.53;;;;;;;3.88;100.00;103058.09;4995106;28;20062;-83
2023/03/01 05:51:04;;;;;;;5.13;3.38;;;;;;;3.89;100.00;103059.78;4996578;28;20142;-85
2023/03/01 05:53:30;;;;;;;6.93;4.00;;;;;;;3.91;100.00;103072.09;4994849;28;20435;-87
2023/03/01 05:55:55;;;;;;;5.93;3.92;;;;;;;3.86;100.00;103066.13;4995167;28;20026;-85
2023/03/01 05:58:21;;;;;;;6.57;3.97;;;;;;;3.82;100.00;103056.59;4996194;28;20373;-85
2023/03/01 06:00:48;;;;;;;5.28;3.42;;;;;;;3.89;100.00;103066.00;4996377;28;20472;-84
2023/03/01 06:03:15;;;;;;;6.68;4.07;;;;;;;3.84;100.00;103060.03;4978578;28;20092;-85
2023/03/01 06:05:42;;;;;;;6.22;3.88;;;;;;;3.86;100.00;103070.59;4978693;28;20393;-85
2023/03/01 06:08:10;;;;;;;5.80;3.58;;;;;;;3.83;100.00;103066.28;4962616;28;20037;-84
2023/03/01 06:10:35;;;;;;;10.52;4.07;;;;;;;3.77;100.00;103055.97;4962684;28;20767;-85
2023/03/01 06:13:01;;;;;;;6.80;3.95;;;;;;;3.79;100.00;103061.22;4995899;28;20112;-84
2023/03/01 06:15:27;;;;;;;6.15;3.58;;;;;;;3.78;100.00;103056.81;4994969;28;20022;-85
2023/03/01 06:17:57;;;;;;;5.20;3.00;;;;;;;3.76;100.00;103059.56;4996090;28;20113;-86
2023/03/01 06:20:25;;;;;;;4.78;3.05;;;;;;;3.45;100.00;103012.31;4963243;28;20120;-84
2023/03/01 06:22:51;;;;;;;6.30;3.35;;;;;;;3.68;100.00;103043.97;4961902;28;20033;-85
2023/03/01 06:25:19;;;;;;;7.28;3.78;;;;;;;3.78;100.00;103055.00;4961955;28;20031;-85
2023/03/01 06:27:45;;;;;;;7.13;3.85;;;;;;;3.82;100.00;103050.41;4978865;28;20034;-86
2023/03/01 06:30:13;;;;;;;2.55;2.00;;;;;;;3.86;100.00;103044.00;4978717;28;20476;-88
2023/03/01 06:32:42;;;;;;;6.80;3.15;;;;;;;4.00;100.00;103059.28;4994782;28;20030;-86
2023/03/01 06:35:13;;;;;;;6.07;3.58;;;;;;;4.03;100.00;103059.13;4963303;28;20035;-87
2023/03/01 06:37:40;;;;;;;5.10;3.40;;;;;;;4.02;100.00;103057.38;4962165;28;20492;-83
2023/03/01 06:40:07;;;;;;;9.13;3.65;;;;;;;3.94;100.00;103049.78;4946352;28;20065;-87
2023/03/01 06:42:37;;;;;;;5.65;3.45;;;;;;;4.01;100.00;103055.69;4994493;28;20457;-86
2023/03/01 06:45:04;;;;;;;3.80;2.53;;;;;;;4.01;100.00;103051.22;4962345;28;20066;-87
2023/03/01 06:47:30;;;;;;;3.25;2.58;;;;;;;3.96;100.00;103031.94;4994100;28;20034;-86
2023/03/01 06:49:56;;;;;;;6.22;3.40;;;;;;;3.97;100.00;103033.69;4995454;28;20042;-84
2023/03/01 06:52:22;;;;;;;4.95;3.17;;;;;;;4.04;100.00;103047.53;4994081;28;20022;-88
2023/03/01 06:54:47;;;;;;;5.20;3.00;;;;;;;4.02;100.00;103038.75;4993725;28;20031;-87
2023/03/01 06:57:13;;;;;;;5.22;3.40;;;;;;;3.98;100.00;103038.06;4994020;28;20499;-86
2023/03/01 06:59:38;;;;;;;4.75;2.70;;;;;;;3.93;100.00;103026.78;4995211;28;20038;-88
2023/03/01 07:02:04;;;;;;;5.80;4.05;;;;;;;3.93;100.00;103038.28;4993990;28;20045;-86
2023/03/01 07:04:33;;;;;;;5.03;3.08;;;;;;;3.90;100.00;103025.13;4995238;28;20040;-88
2023/03/01 07:06:59;;;;;;;3.88;2.53;;;;;;;3.90;100.00;103027.78;4994596;28;20022;-85
2023/03/01 07:09:24;;;;;;;3.65;2.63;;;;;;;3.92;100.00;103038.38;4994758;28;20084;-88
2023/03/01 07:11:50;;;;;;;5.63;3.10;;;;;;;3.91;100.00;103040.16;4995032;28;20026;-84
2023/03/01 07:14:16;;;;;;;6.23;3.40;;;;;;;3.78;100.00;103023.06;4978049;28;20480;-86
2023/03/01 07:16:41;;;;;;;6.50;3.33;;;;;;;3.83;100.00;103034.34;4977807;28;20042;-83
2023/03/01 07:19:07;;;;;;;6.07;3.40;;;;;;;3.81;100.00;103022.94;4993859;28;20444;-84
2023/03/01 07:21:33;;;;;;;6.45;3.63;;;;;;;3.88;100.00;103039.47;4993673;28;20053;-82
2023/03/01 07:23:58;;;;;;;5.88;3.53;;;;;;;3.73;100.00;103018.00;4993807;28;20116;-86
2023/03/01 07:26:24;;;;;;;4.90;3.42;;;;;;;3.91;100.00;103039.28;4993480;28;20031;-87
2023/03/01 07:28:50;;;;;;;5.70;3.60;;;;;;;3.89;100.00;103028.75;4977552;28;20050;-87
2023/03/01 07:31:15;;;;;;;5.05;2.50;;;;;;;3.90;100.00;103027.78;4994637;28;20465;-86
2023/03/01 07:33:41;;;;;;;6.32;3.10;;;;;;;4.01;100.00;103034.38;4994442;28;20033;-85
2023/03/01 07:36:08;;;;;;;4.60;3.08;;;;;;;4.08;100.00;103033.16;4977145;28;20030;-86
2023/03/01 07:38:33;;;;;;;4.43;2.60;;;;;;;4.06;100.00;103043.00;4961333;28;20125;-86
2023/03/01 07:41:01;;;;;;;5.93;3.15;;;;;;;4.08;100.00;103035.81;4961320;28;20038;-86
2023/03/01 07:43:28;;;;;;;4.65;2.50;;;;;;;4.08;100.00;103034.00;4961268;28;20042;-86
2023/03/01 07:45:54;;;;;;;9.27;3.20;;;;;;;4.13;100.00;103041.75;4961173;28;20050;-83
2023/03/01 07:48:19;;;;;;;5.47;2.55;;;;;;;4.14;100.00;103044.31;4992934;28;20026;-89
2023/03/01 07:50:45;;;;;;;5.00;2.50;;;;;;;4.16;100.00;103039.78;4976951;28;20035;-84
2023/03/01 07:53:11;;;;;;;5.50;2.80;;;;;;;4.20;100.00;103037.81;4994227;28;20038;-81
2023/03/01 07:55:37;;;;;;;6.53;3.03;;;;;;;4.24;100.00;103047.41;4993068;28;20666;-86
2023/03/01 07:58:03;;;;;;;4.32;2.78;;;;;;;4.23;100.00;103047.47;4994419;28;20469;-82
2023/03/01 08:00:28;;;;;;;4.05;2.22;;;;;;;4.24;100.00;103042.06;4994111;28;20038;-85
2023/03/01 08:02:54;;;;;;;4.85;2.80;;;;;;;4.22;100.00;103037.75;4994153;28;20034;-85
2023/03/01 08:05:21;;;;;;;4.13;2.65;;;;;;;4.30;100.00;103038.22;4993091;28;20062;-87
2023/03/01 08:07:48;;;;;;;4.85;2.63;;;;;;;4.24;100.00;103017.25;4994233;28;20048;-86
2023/03/01 08:10:14;;;;;;;4.63;2.42;;;;;;;4.42;100.00;103034.94;4994061;28;20454;-86
2023/03/01 08:12:40;;;;;;;6.05;2.13;;;;;;;4.43;100.00;103028.66;4976984;28;20030;-85
2023/03/01 08:15:06;;;;;;;5.07;2.60;;;;;;;4.54;100.00;103028.09;4993897;28;20121;-81
2023/03/01 08:17:31;;;;;;;2.83;2.40;;;;;;;4.48;100.00;103025.75;4977188;28;20504;-87
2023/03/01 08:19:57;;;;;;;4.07;2.25;;;;;;;4.58;100.00;103038.53;4993180;28;20035;-85
2023/03/01 08:22:22;;;;;;;5.53;2.40;;;;;;;4.61;100.00;103034.84;4993135;28;20037;-84
2023/03/01 08:24:48;;;;;;;3.28;2.10;;;;;;;4.70;100.00;103037.00;4994022;28;20035;-86
2023/03/01 08:27:15;;;;;;;4.40;2.15;;;;;;;4.70;100.00;103031.66;4994294;28;20042;-85
2023/03/01 08:29:43;;;;;;;4.97;2.35;;;;;;;4.81;100.00;103045.28;4948151;28;20468;-84
2023/03/01 08:32:09;;;;;;;5.93;2.25;;;;;;;4.85;100.00;103038.00;4998627;28;20034;-85
2023/03/01 08:34:35;;;;;;;6.05;2.90;;;;;;;4.85;100.00;103040.66;4966173;28;20177;-84
2023/03/01 08:37:13;;;;;;;4.78;2.72;;;;;;;4.96;99.99;103045.41;4998389;28;20022;-87
2023/03/01 08:39:38;;;;;;;4.72;2.30;;;;;;;5.03;99.82;103046.81;4949818;28;20038;-86
2023/03/01 08:42:04;;;;;;;3.50;2.28;;;;;;;5.12;99.27;103046.28;4964678;28;20041;-86
2023/03/01 08:44:30;;;;;;;3.67;2.33;;;;;;;5.16;99.43;103050.53;4997852;28;20057;-85
2023/03/01 08:46:55;;;;;;;5.18;2.70;;;;;;;5.16;99.37;103041.63;4997893;28;20487;-88
2023/03/01 08:49:21;;;;;;;15.52;7.72;;;;;;;5.29;98.68;103054.22;4998157;28;20070;-81
2023/03/01 08:51:47;;;;;;;11.88;7.40;;;;;;;5.37;98.04;103050.25;4994336;28;20022;-85
2023/03/01 08:54:22;;;;;;;6.18;3.15;;;;;;;5.38;97.20;103036.84;4997819;28;20027;-84
2023/03/01 08:56:48;;;;;;;4.22;2.95;;;;;;;5.35;97.07;103030.81;4964184;28;20158;-87
2023/03/01 08:59:15;;;;;;;5.68;3.22;;;;;;;5.49;96.51;103049.56;4996255;28;20055;-87
2023/03/01 09:01:43;;;;;;;4.28;2.92;;;;;;;5.55;96.43;103040.34;4948043;28;20038;-81
2023/03/01 09:04:09;;;;;;;11.32;5.40;;;;;;;5.61;96.49;103040.88;4996201;28;20069;-83
2023/03/01 09:06:35;;;;;;;9.35;5.57;;;;;;;5.67;96.04;103034.34;4963643;28;20026;-84
2023/03/01 09:09:03;;;;;;;8.50;4.78;;;;;;;5.71;95.76;103027.84;4996475;28;20041;-86
2023/03/01 09:11:29;;;;;;;7.50;3.95;;;;;;;5.81;94.80;103028.19;4996241;28;20121;-84
2023/03/01 09:13:55;;;;;;;4.05;2.70;;;;;;;5.91;94.12;103032.06;4997355;28;20026;-86
2023/03/01 09:16:22;;;;;;;3.40;2.05;;;;;;;6.01;93.44;103043.94;4996047;28;20439;-87
2023/03/01 09:18:53;;;;;;;3.08;1.80;;;;;;;6.06;91.89;103033.84;4963532;28;20038;-84
2023/03/01 09:21:22;;;;;;;4.30;1.77;;;;;;;6.13;90.89;103032.53;4996311;28;20026;-81
2023/03/01 09:23:50;;;;;;;2.50;1.75;;;;;;;6.23;88.85;103042.69;4995569;28;20089;-87
2023/03/01 09:26:19;;;;;;;1.50;1.10;;;;;;;6.33;89.00;103038.50;4996873;28;20030;-86
2023/03/01 09:28:46;;;;;;;2.00;1.25;;;;;;;6.43;89.11;103041.47;4978901;28;20061;-85
2023/03/01 09:31:13;;;;;;;2.85;1.30;;;;;;;6.53;88.54;103035.47;4947561;28;20041;-79
2023/03/01 09:33:40;;;;;;;0.98;0.80;;;;;;;6.64;87.46;103015.25;4994833;28;20034;-79
2023/03/01 09:36:12;;;;;;;1.17;1.08;;;;;;;6.81;84.91;103021.28;4976963;28;20150;-81
2023/03/01 09:38:43;;;;;;;2.13;1.38;;;;;;;6.97;85.77;103031.88;4977906;28;20026;-83
2023/03/01 09:41:29;;;;;;;1.05;0.98;;;;;;;7.13;84.32;103026.41;4960055;28;20033;-82
2023/03/01 09:44:16;;;;;;;1.75;1.08;;;;;;;7.34;84.89;103031.34;4993237;28;20122;-79
2023/03/01 09:46:44;;;;;;;0.85;0.80;;;;;;;7.45;83.22;103031.50;4993062;28;20491;-80
2023/03/01 09:49:17;;;;;;;2.42;1.40;;;;;;;7.53;79.78;103018.47;4962119;28;20132;-81
2023/03/01 09:51:55;;;;;;;2.53;1.20;;;;;;;7.55;80.31;103029.94;4963048;28;20034;-80
2023/03/01 09:54:21;;;;;;;1.65;1.40;;;;;;;7.54;80.15;103019.31;4995276;28;20035;-81
2023/03/01 09:57:05;;;;;;;2.63;1.25;;;;;;;7.66;79.18;102999.78;4995382;28;20041;-83
2023/03/01 09:59:52;;;;;;;1.83;1.13;;;;;;;7.97;78.49;103005.78;4963150;28;20038;-80
2023/03/01 10:02:24;;;;;;;2.30;1.35;;;;;;;8.28;75.41;103010.75;4995201;28;20481;-82
2023/03/01 10:04:54;;;;;;;3.00;1.67;;;;;;;8.35;74.52;103009.34;4994858;28;20030;-79
2023/03/01 10:07:19;;;;;;;2.03;1.50;;;;;;;8.36;73.46;103013.78;4978688;28;20465;-83
2023/03/01 10:09:46;;;;;;;2.38;1.67;;;;;;;8.35;74.16;103004.00;4995229;28;20041;-82
2023/03/01 10:12:15;;;;;;;5.00;1.60;;;;;;;8.28;73.62;102977.72;4978685;28;20381;-81
2023/03/01 10:15:12;;;;;;;2.67;1.50;;;;;;;8.75;72.65;103000.38;4994442;28;20037;-83
2023/03/01 10:17:48;;;;;;;1.20;1.10;;;;;;;8.69;72.16;102992.78;4988245;28;20096;-81
2023/03/01 10:20:25;;;;;;;4.47;1.58;;;;;;;8.59;73.86;103001.44;4994902;28;20030;-82
2023/03/01 10:22:55;;;;;;;1.98;1.40;;;;;;;8.71;71.52;102991.69;4978573;28;20030;-81
2023/03/01 10:25:36;;;;;;;1.27;1.10;;;;;;;8.77;71.49;102996.63;4962650;28;20034;-81
2023/03/01 10:28:07;;;;;;;1.45;1.17;;;;;;;8.84;72.38;103001.53;4994754;28;20027;-81
2023/03/01 10:30:38;;;;;;;2.30;1.35;;;;;;;8.83;71.58;103008.72;4978400;28;20042;-83
2023/03/01 10:33:14;;;;;;;2.08;1.40;;;;;;;8.70;71.55;103003.38;4978969;28;20038;-81
2023/03/01 10:35:40;;;;;;;1.60;1.20;;;;;;;8.46;72.61;103010.47;4978399;28;20030;-81
2023/03/01 10:38:13;;;;;;;2.17;1.35;;;;;;;8.17;72.61;102986.50;4995290;28;20117;-82
2023/03/01 10:41:01;;;;;;;2.45;1.50;;;;;;;8.11;73.90;103011.03;4962335;28;20065;-83
2023/03/01 10:44:00;;;;;;;3.40;1.13;;;;;;;7.92;75.40;103012.28;4978590;28;20096;-83
2023/03/01 10:46:25;;;;;;;2.47;1.10;;;;;;;7.99;76.19;102995.78;4952161;28;20069;-80
2023/03/01 10:49:10;;;;;;;1.95;1.10;;;;;;;8.31;76.28;103005.19;4994408;28;20069;-80
2023/03/01 10:51:36;;;;;;;1.48;1.20;;;;;;;8.65;74.69;102993.94;4995148;28;20034;-83
2023/03/01 10:54:06;;;;;;;1.80;1.00;;;;;;;8.99;71.79;102995.06;4993711;28;20026;-87
2023/03/01 10:56:49;;;;;;;1.55;1.02;;;;;;;9.31;68.51;102989.19;4961548;28;20054;-82
2023/03/01 10:59:36;;;;;;;2.25;1.40;;;;;;;9.54;69.16;102991.03;4977228;28;20042;-79
2023/03/01 11:02:03;;;;;;;1.45;1.15;;;;;;;9.41;67.29;102995.59;4977886;28;20037;-80
2023/03/01 11:04:31;;;;;;;1.35;1.00;;;;;;;9.21;68.48;102999.75;4977661;28;20026;-78
2023/03/01 11:06:59;;;;;;;4.25;1.20;;;;;;;9.22;68.59;103006.84;4961575;28;20121;-80
2023/03/01 11:09:27;;;;;;;2.13;1.10;;;;;;;9.12;68.78;102995.91;4977229;28;20109;-78
2023/03/01 11:11:54;;;;;;;2.22;1.20;;;;;;;9.00;70.12;102999.50;4993645;28;20447;-78
2023/03/01 11:14:30;;;;;;;1.27;1.10;;;;;;;8.96;69.71;102989.94;4977494;28;20034;-83
2023/03/01 11:17:05;;;;;;;1.17;1.08;;;;;;;9.09;70.89;102998.81;4946078;28;20034;-83
2023/03/01 11:19:31;;;;;;;2.55;1.20;;;;;;;9.61;69.76;102999.50;4993339;28;20064;-84
2023/03/01 11:22:14;;;;;;;1.95;1.02;;;;;;;10.13;66.18;102991.03;4961523;28;20173;-80
2023/03/01 11:25:00;;;;;;;1.48;1.38;;;;;;;10.17;65.59;102991.63;4961494;28;20065;-82
2023/03/01 11:27:32;;;;;;;1.48;1.10;;;;;;;10.21;65.63;102984.19;4993492;28;20034;-78
2023/03/01 11:30:16;;;;;;;1.20;0.82;;;;;;;10.01;67.35;102981.22;4977560;28;20034;-81
2023/03/01 11:32:46;;;;;;;2.28;1.10;;;;;;;9.83;67.43;102986.16;4977529;28;20034;-78
2023/03/01 11:35:19;;;;;;;1.50;1.25;;;;;;;9.72;68.70;102950.34;4993269;28;20576;-77
2023/03/01 11:38:10;;;;;;;1.05;0.80;;;;;;;9.96;67.11;102982.53;4961232;28;20045;-77
2023/03/01 11:40:53;;;;;;;1.40;1.10;;;;;;;9.61;68.07;102984.25;4993333;28;20472;-80
2023/03/01 11:43:53;;;;;;;2.13;1.33;;;;;;;9.15;69.94;102982.25;4977172;28;20026;-77